Time;durP1;ratioP1;P1;durP2;ratioP2;P2;SDS_P1;SDS_P2;PMS_P1;PMS_P2;Temp;Humidity;BMP_temperature;BMP_pressure;BME280_temperature;BME280_humidity;BME280_pressure;Samples;Min_cycle;Max_cycle;Signal;HPM_P1;HPM_P2
2023/07/31 00:01:33;;;;;;;5.10;3.00;;;;;;;17.99;100.00;98976.13;105774;1257;73664;-77
2023/07/31 00:04:00;;;;;;;6.00;4.00;;;;;;;17.97;100.00;98980.20;105912;1253;71047;-76
2023/07/31 00:06:27;;;;;;;7.70;4.40;;;;;;;17.95;100.00;98985.16;105844;1257;71292;-77
2023/07/31 00:08:53;;;;;;;4.80;4.10;;;;;;;17.93;100.00;98986.16;105947;1253;60599;-77
2023/07/31 00:11:20;;;;;;;8.00;3.60;;;;;;;17.91;100.00;98985.39;105908;1252;61095;-77
2023/07/31 00:13:47;;;;;;;8.80;3.60;;;;;;;17.89;100.00;98988.95;105702;1253;60546;-76
2023/07/31 00:16:13;;;;;;;5.50;3.30;;;;;;;17.86;100.00;98985.74;105660;1254;71008;-76
2023/07/31 00:18:40;;;;;;;8.10;3.50;;;;;;;17.85;100.00;98984.05;105963;1252;72560;-76
2023/07/31 00:21:07;;;;;;;7.80;3.80;;;;;;;17.80;100.00;98979.23;105971;1253;60546;-77
2023/07/31 00:23:33;;;;;;;8.50;3.60;;;;;;;17.78;100.00;98972.31;105925;1258;60333;-78
2023/07/31 00:26:00;;;;;;;6.90;3.50;;;;;;;17.75;100.00;98969.52;105820;1252;73891;-79
2023/07/31 00:28:28;;;;;;;5.90;3.70;;;;;;;17.71;100.00;98965.17;105809;1252;70972;-77
2023/07/31 00:30:55;;;;;;;7.30;4.00;;;;;;;17.69;100.00;98960.75;105728;1253;72407;-76
2023/07/31 00:33:25;;;;;;;16.70;3.80;;;;;;;17.68;100.00;98966.14;105647;1253;61762;-76
2023/07/31 00:35:52;;;;;;;9.90;3.90;;;;;;;17.67;100.00;98971.90;105697;1253;60670;-76
2023/07/31 00:38:19;;;;;;;5.20;3.80;;;;;;;17.65;100.00;98973.80;105750;1256;73821;-78
2023/07/31 00:40:45;;;;;;;6.50;4.30;;;;;;;17.62;100.00;98973.31;105824;1253;70899;-76
2023/07/31 00:43:12;;;;;;;5.40;4.50;;;;;;;17.59;100.00;98977.74;105863;1257;72618;-76
2023/07/31 00:45:40;;;;;;;7.00;5.10;;;;;;;17.55;100.00;98981.23;105873;1253;62089;-76
2023/07/31 00:48:08;;;;;;;6.80;4.20;;;;;;;17.47;100.00;98981.77;105812;1252;60573;-77
2023/07/31 00:50:35;;;;;;;13.00;4.20;;;;;;;17.42;100.00;98983.37;105889;1257;73928;-77
2023/07/31 00:53:03;;;;;;;10.10;4.40;;;;;;;17.40;100.00;98983.70;105927;1253;70807;-76
2023/07/31 00:55:30;;;;;;;7.70;4.10;;;;;;;17.39;100.00;98985.92;105838;1257;72875;-77
2023/07/31 00:57:57;;;;;;;6.70;4.50;;;;;;;17.37;100.00;98989.04;105843;1253;61650;-77
2023/07/31 01:00:23;;;;;;;6.30;4.30;;;;;;;17.36;100.00;98993.71;105833;1254;60439;-77
2023/07/31 01:02:50;;;;;;;4.30;3.70;;;;;;;17.35;100.00;98994.51;105905;1253;73928;-76
2023/07/31 01:05:25;;;;;;;4.50;3.80;;;;;;;17.34;100.00;98991.23;105951;1252;71133;-77
2023/07/31 01:08:01;;;;;;;6.20;4.10;;;;;;;17.34;100.00;98988.42;105901;1253;72464;-77
2023/07/31 01:10:37;;;;;;;5.50;3.70;;;;;;;17.33;100.00;98981.73;105752;1253;61817;-76
2023/07/31 01:13:04;;;;;;;6.20;3.00;;;;;;;17.32;100.00;98979.30;105872;1252;60442;-77
2023/07/31 01:15:30;;;;;;;4.50;3.20;;;;;;;17.30;100.00;98981.80;105889;1254;60622;-77
2023/07/31 01:17:57;;;;;;;4.10;3.00;;;;;;;17.28;100.00;98978.55;105916;1253;60566;-77
2023/07/31 01:20:25;;;;;;;3.80;2.90;;;;;;;17.26;100.00;98977.59;105966;1253;72663;-77
2023/07/31 01:23:10;;;;;;;11.80;4.00;;;;;;;17.26;100.00;98979.92;105880;1253;60582;-77
2023/07/31 01:25:49;;;;;;;6.40;3.60;;;;;;;17.24;100.00;98985.20;105840;1253;60493;-77
2023/07/31 01:28:29;;;;;;;6.40;3.70;;;;;;;17.19;100.00;98987.15;105806;1256;73664;-77
2023/07/31 01:30:57;;;;;;;4.90;4.50;;;;;;;17.17;100.00;98988.58;105821;1253;70991;-77
2023/07/31 01:33:24;;;;;;;7.80;4.10;;;;;;;17.16;100.00;98988.09;105847;1253;72547;-77
2023/07/31 01:35:51;;;;;;;5.10;3.30;;;;;;;17.14;100.00;98986.33;105880;1253;61892;-76
2023/07/31 01:38:22;;;;;;;7.30;3.30;;;;;;;17.11;100.00;98980.50;105897;1253;60445;-77
2023/07/31 01:40:52;;;;;;;3.30;3.00;;;;;;;17.08;100.00;98975.45;105979;1252;73756;-76
2023/07/31 01:43:19;;;;;;;7.70;3.10;;;;;;;17.06;100.00;98971.02;105884;1257;69975;-77
2023/07/31 01:45:47;;;;;;;7.00;4.20;;;;;;;17.05;100.00;98973.93;105898;1253;72373;-76
2023/07/31 01:48:13;;;;;;;6.80;3.80;;;;;;;17.02;100.00;98975.20;105908;1253;61880;-77
2023/07/31 01:50:41;;;;;;;4.70;4.30;;;;;;;16.99;100.00;98974.73;105940;1253;61036;-76
2023/07/31 01:53:07;;;;;;;11.20;3.70;;;;;;;16.97;100.00;98977.89;105928;1257;60428;-76
2023/07/31 01:55:34;;;;;;;5.90;3.90;;;;;;;16.96;100.00;98979.01;105876;1254;71152;-77
2023/07/31 01:58:01;;;;;;;6.70;3.40;;;;;;;16.93;100.00;98981.52;105834;1257;70152;-76
2023/07/31 02:00:28;;;;;;;4.50;3.30;;;;;;;16.91;100.00;98987.83;105837;1253;60516;-77
2023/07/31 02:02:55;;;;;;;4.30;3.80;;;;;;;16.89;100.00;98987.84;105769;1257;60555;-77
2023/07/31 02:05:21;;;;;;;10.70;4.00;;;;;;;16.88;100.00;98988.81;105697;1254;73871;-77
2023/07/31 02:07:48;;;;;;;6.20;3.60;;;;;;;16.85;100.00;98986.48;105884;1253;70929;-78
2023/07/31 02:10:15;;;;;;;6.70;4.80;;;;;;;16.83;100.00;98985.88;105809;1252;71286;-79
2023/07/31 02:12:41;;;;;;;7.50;4.80;;;;;;;16.82;100.00;98983.66;105784;1257;60461;-76
2023/07/31 02:15:09;;;;;;;9.40;4.60;;;;;;;16.80;100.00;98986.85;105773;1253;60556;-76
2023/07/31 02:17:35;;;;;;;4.60;3.40;;;;;;;16.78;100.00;98988.73;105859;1252;72784;-76
2023/07/31 02:20:03;;;;;;;4.60;3.30;;;;;;;16.75;100.00;98986.46;105789;1253;71037;-76
2023/07/31 02:22:30;;;;;;;8.60;3.60;;;;;;;16.73;100.00;98984.11;105802;1253;72569;-76
2023/07/31 02:24:57;;;;;;;6.20;3.70;;;;;;;16.71;100.00;98980.52;105680;1253;60576;-76
2023/07/31 02:27:27;;;;;;;8.70;4.40;;;;;;;16.69;100.00;98977.96;105851;1252;60480;-77
2023/07/31 02:29:54;;;;;;;7.30;3.90;;;;;;;16.69;100.00;98981.17;105865;1257;73595;-78
2023/07/31 02:32:21;;;;;;;6.90;4.20;;;;;;;16.68;100.00;98982.33;105694;1257;69148;-77
2023/07/31 02:34:48;;;;;;;6.30;5.10;;;;;;;16.67;100.00;98985.77;105830;1253;72827;-77
2023/07/31 02:37:14;;;;;;;6.70;5.40;;;;;;;16.66;100.00;98990.95;105772;1257;60505;-76
2023/07/31 02:39:41;;;;;;;11.30;4.40;;;;;;;16.66;100.00;98987.58;105833;1257;60364;-77
2023/07/31 02:42:08;;;;;;;7.00;4.60;;;;;;;16.65;100.00;98980.91;105672;1253;73609;-76
2023/07/31 02:44:34;;;;;;;9.60;4.70;;;;;;;16.65;100.00;98984.82;105736;1253;60476;-75
2023/07/31 02:47:03;;;;;;;7.80;4.70;;;;;;;16.65;100.00;98984.29;105755;1253;72377;-77
2023/07/31 02:49:30;;;;;;;5.30;3.80;;;;;;;16.65;100.00;98985.84;105743;1253;60472;-76
2023/07/31 02:51:56;;;;;;;9.60;3.90;;;;;;;16.66;100.00;98990.26;105734;1257;60931;-78
2023/07/31 02:54:23;;;;;;;7.70;4.00;;;;;;;16.65;100.00;98992.43;105850;1257;73854;-77
2023/07/31 02:56:50;;;;;;;8.20;5.10;;;;;;;16.63;100.00;98992.06;105869;1253;71741;-76
2023/07/31 02:59:17;;;;;;;8.50;5.20;;;;;;;16.61;100.00;98993.23;105835;1252;71266;-77
2023/07/31 03:01:44;;;;;;;10.60;4.80;;;;;;;16.61;100.00;98994.81;105821;1253;61811;-76
2023/07/31 03:04:14;;;;;;;7.10;4.70;;;;;;;16.62;100.00;98993.85;105708;1256;60387;-76
2023/07/31 03:06:45;;;;;;;8.60;4.90;;;;;;;16.64;100.00;98995.34;105869;1257;73561;-77
2023/07/31 03:09:11;;;;;;;7.90;5.30;;;;;;;16.66;100.00;98998.38;106035;1257;69576;-76
2023/07/31 03:11:38;;;;;;;16.60;8.60;;;;;;;16.68;100.00;99006.02;105873;1254;72479;-77
2023/07/31 03:14:05;;;;;;;19.10;9.30;;;;;;;16.70;100.00;99014.19;105919;1253;61832;-76
2023/07/31 03:16:32;;;;;;;14.10;8.20;;;;;;;16.74;100.00;99014.86;105796;1253;60464;-77
2023/07/31 03:18:59;;;;;;;10.80;7.30;;;;;;;16.78;100.00;99015.52;105762;1253;73625;-77
2023/07/31 03:21:26;;;;;;;9.40;6.50;;;;;;;16.82;100.00;99016.27;105882;1253;70793;-78
2023/07/31 03:23:53;;;;;;;8.80;6.00;;;;;;;16.86;100.00;99019.94;105962;1253;72662;-79
2023/07/31 03:26:20;;;;;;;7.60;6.10;;;;;;;16.89;100.00;99021.67;105825;1253;60477;-77
2023/07/31 03:28:46;;;;;;;7.80;5.70;;;;;;;16.94;100.00;99023.13;105760;1253;60544;-77
2023/07/31 03:31:13;;;;;;;7.10;5.70;;;;;;;16.97;100.00;99034.95;105678;1257;73638;-76
2023/07/31 03:33:40;;;;;;;8.90;5.70;;;;;;;16.98;100.00;99039.80;105745;1258;69743;-76
2023/07/31 03:36:07;;;;;;;6.30;5.60;;;;;;;17.01;100.00;99047.43;105766;1254;72536;-76
2023/07/31 03:38:34;;;;;;;8.40;5.60;;;;;;;17.03;100.00;99041.76;105879;1253;61695;-77
2023/07/31 03:41:02;;;;;;;8.70;5.70;;;;;;;17.06;100.00;99048.63;105868;1253;60476;-77
2023/07/31 03:43:29;;;;;;;8.80;6.10;;;;;;;17.08;100.00;99047.42;105945;1255;73827;-77
2023/07/31 03:45:55;;;;;;;9.30;6.10;;;;;;;17.12;100.00;99053.98;105965;1256;69644;-78
2023/07/31 03:48:22;;;;;;;6.80;6.00;;;;;;;17.14;100.00;99056.08;105966;1257;60555;-78
2023/07/31 03:50:49;;;;;;;8.20;6.30;;;;;;;17.17;100.00;99057.12;105972;1253;61810;-78
2023/07/31 03:53:16;;;;;;;9.70;7.30;;;;;;;17.21;100.00;99058.80;105971;1253;60555;-77
2023/07/31 03:55:42;;;;;;;10.50;7.50;;;;;;;17.25;100.00;99066.69;105971;1257;60455;-77
2023/07/31 03:58:09;;;;;;;7.60;6.80;;;;;;;17.29;100.00;99065.00;105952;1253;70010;-78
2023/07/31 04:00:36;;;;;;;6.70;6.10;;;;;;;17.32;100.00;99064.23;106044;1253;72518;-78
2023/07/31 04:03:03;;;;;;;9.20;7.00;;;;;;;17.34;100.00;99067.99;106021;1253;61777;-77
2023/07/31 04:05:31;;;;;;;7.70;6.90;;;;;;;17.36;100.00;99067.33;106055;1253;61017;-76
2023/07/31 04:07:58;;;;;;;7.10;6.20;;;;;;;17.37;100.00;99068.15;105994;1254;73678;-76
2023/07/31 04:10:24;;;;;;;6.50;5.90;;;;;;;17.39;100.00;99069.26;105940;1253;70868;-76
2023/07/31 04:12:51;;;;;;;6.10;5.50;;;;;;;17.41;100.00;99069.09;105908;1253;60439;-77
2023/07/31 04:15:17;;;;;;;6.00;5.40;;;;;;;17.44;100.00;99072.59;105999;1253;60515;-78
2023/07/31 04:17:44;;;;;;;5.90;5.40;;;;;;;17.48;100.00;99074.34;106054;1257;60477;-77
2023/07/31 04:20:11;;;;;;;7.10;5.10;;;;;;;17.49;100.00;99075.49;105979;1257;73815;-78
2023/07/31 04:22:37;;;;;;;8.40;5.60;;;;;;;17.52;100.00;99082.16;106037;1257;69829;-78
2023/07/31 04:25:05;;;;;;;9.50;7.40;;;;;;;17.55;100.00;99085.01;105976;1253;72476;-78
2023/07/31 04:27:31;;;;;;;8.10;6.30;;;;;;;17.54;100.00;99080.61;105970;1253;62086;-78
2023/07/31 04:29:58;;;;;;;7.30;6.50;;;;;;;17.52;100.00;99080.58;106040;1253;60540;-77
2023/07/31 04:32:25;;;;;;;6.70;6.00;;;;;;;17.49;100.00;99082.19;106058;1257;73733;-78
2023/07/31 04:34:51;;;;;;;5.60;5.10;;;;;;;17.50;100.00;99081.97;105969;1253;71121;-77
2023/07/31 04:37:18;;;;;;;13.10;6.60;;;;;;;17.53;100.00;99083.18;106032;1257;60464;-77
2023/07/31 04:39:45;;;;;;;53.10;19.40;;;;;;;17.57;100.00;99086.23;106095;1253;61883;-77
2023/07/31 04:42:11;;;;;;;43.00;18.00;;;;;;;17.61;100.00;99087.02;106226;1257;60442;-78
2023/07/31 04:44:38;;;;;;;20.20;10.50;;;;;;;17.65;100.00;99084.45;106240;1257;60537;-78
2023/07/31 04:47:04;;;;;;;13.70;8.40;;;;;;;17.69;100.00;99086.15;106133;1253;71082;-78
2023/07/31 04:49:32;;;;;;;6.90;5.80;;;;;;;17.73;100.00;99088.48;106111;1252;71278;-77
2023/07/31 04:51:59;;;;;;;9.60;5.40;;;;;;;17.78;100.00;99096.86;105403;1253;1002555;-77
2023/07/31 04:54:25;;;;;;;6.50;5.30;;;;;;;17.82;100.00;99096.41;106079;1258;60764;-78
2023/07/31 04:56:53;;;;;;;5.30;4.80;;;;;;;17.86;100.00;99097.40;106149;1253;73666;-77
2023/07/31 04:59:20;;;;;;;4.50;4.10;;;;;;;17.90;100.00;99096.38;106050;1253;71195;-77
2023/07/31 05:01:47;;;;;;;4.60;4.30;;;;;;;17.95;100.00;99101.02;106033;1257;72514;-78
2023/07/31 05:04:14;;;;;;;4.60;4.20;;;;;;;17.98;100.00;99101.12;106104;1258;61971;-78
2023/07/31 05:06:41;;;;;;;3.90;3.60;;;;;;;18.02;100.00;99099.28;106171;1253;60499;-76
2023/07/31 05:09:09;;;;;;;3.90;3.60;;;;;;;18.06;100.00;99104.47;106165;1253;73894;-78
2023/07/31 05:11:36;;;;;;;3.70;3.40;;;;;;;18.09;100.00;99105.15;106105;1257;71060;-77
2023/07/31 05:14:02;;;;;;;6.50;4.30;;;;;;;18.13;100.00;99106.20;106130;1256;71201;-75
2023/07/31 05:16:29;;;;;;;7.90;4.10;;;;;;;18.18;100.00;99110.86;106162;1253;62108;-77
2023/07/31 05:18:57;;;;;;;4.70;3.70;;;;;;;18.22;100.00;99110.94;106196;1253;60590;-78
2023/07/31 05:21:24;;;;;;;6.00;3.90;;;;;;;18.25;100.00;99109.80;106108;1253;73570;-78
2023/07/31 05:23:50;;;;;;;3.40;3.20;;;;;;;18.30;100.00;99113.91;106091;1253;71206;-77
2023/07/31 05:26:17;;;;;;;4.10;3.50;;;;;;;18.34;100.00;99114.11;106100;1253;72489;-77
2023/07/31 05:28:45;;;;;;;3.50;3.20;;;;;;;18.40;100.00;99118.11;106121;1253;61896;-78
2023/07/31 05:31:12;;;;;;;3.70;3.30;;;;;;;18.44;100.00;99115.17;106078;1258;60563;-76
2023/07/31 05:33:38;;;;;;;4.70;3.90;;;;;;;18.50;100.00;99118.45;106093;1258;60511;-78
2023/07/31 05:36:05;;;;;;;7.70;3.50;;;;;;;18.54;100.00;99120.61;106139;1256;69527;-78
2023/07/31 05:38:32;;;;;;;3.70;3.40;;;;;;;18.59;100.00;99116.61;106211;1253;72477;-79
2023/07/31 05:40:58;;;;;;;4.10;3.80;;;;;;;18.63;100.00;99120.34;106120;1253;61820;-78
2023/07/31 05:43:25;;;;;;;4.40;4.00;;;;;;;18.67;100.00;99119.16;106151;1253;60454;-78
2023/07/31 05:45:52;;;;;;;5.10;4.10;;;;;;;18.71;100.00;99113.42;106196;1257;60434;-79
2023/07/31 05:48:18;;;;;;;5.30;4.90;;;;;;;18.74;100.00;99113.87;106128;1253;69994;-78
2023/07/31 05:50:45;;;;;;;6.30;4.30;;;;;;;18.76;100.00;99113.70;106176;1253;72540;-78
2023/07/31 05:53:12;;;;;;;4.40;4.00;;;;;;;18.79;100.00;99108.90;106194;1257;60413;-79
2023/07/31 05:55:38;;;;;;;7.40;5.30;;;;;;;18.83;100.00;99107.20;106156;1253;60477;-78
2023/07/31 05:58:05;;;;;;;6.50;5.70;;;;;;;18.86;100.00;99101.27;106116;1254;73662;-78
2023/07/31 06:00:32;;;;;;;5.90;4.90;;;;;;;18.89;100.00;99108.12;106054;1253;70833;-78
2023/07/31 06:02:59;;;;;;;8.30;5.30;;;;;;;18.93;100.00;99108.38;106096;1256;73107;-78
2023/07/31 06:05:28;;;;;;;11.60;5.50;;;;;;;18.98;100.00;99108.73;106134;1253;60534;-79
2023/07/31 06:07:54;;;;;;;6.00;5.50;;;;;;;19.03;100.00;99108.73;106186;1252;60453;-78
2023/07/31 06:10:21;;;;;;;6.20;5.60;;;;;;;19.05;100.00;99108.87;106080;1253;60435;-78
2023/07/31 06:12:48;;;;;;;6.10;5.50;;;;;;;19.09;100.00;99112.34;106091;1257;69662;-78
2023/07/31 06:15:14;;;;;;;6.40;5.80;;;;;;;19.13;100.00;99114.73;106076;1253;72509;-80
2023/07/31 06:17:42;;;;;;;8.00;6.40;;;;;;;19.17;100.00;99113.34;106105;1255;60559;-79
2023/07/31 06:20:09;;;;;;;8.70;6.50;;;;;;;19.21;100.00;99113.88;106055;1254;60454;-79
2023/07/31 06:22:36;;;;;;;6.90;6.30;;;;;;;19.26;100.00;99114.06;106073;1256;73839;-80
2023/07/31 06:25:03;;;;;;;6.90;6.30;;;;;;;19.27;100.00;99112.17;106035;1254;60534;-78
2023/07/31 06:27:30;;;;;;;7.90;6.10;;;;;;;19.29;100.00;99113.30;105959;1253;72653;-78
2023/07/31 06:29:57;;;;;;;6.80;6.00;;;;;;;19.33;100.00;99113.19;105943;1253;61843;-78
2023/07/31 06:32:24;;;;;;;6.80;6.00;;;;;;;19.38;100.00;99113.89;105913;1258;60397;-78
2023/07/31 06:34:51;;;;;;;6.30;5.70;;;;;;;19.43;100.00;99118.06;105889;1257;72358;-78
2023/07/31 06:37:18;;;;;;;7.20;6.50;;;;;;;19.49;100.00;99114.06;105863;1253;70941;-77
2023/07/31 06:39:44;;;;;;;6.70;5.50;;;;;;;19.53;100.00;99106.63;105816;1254;73824;-78
2023/07/31 06:42:11;;;;;;;9.30;7.00;;;;;;;19.58;100.00;99109.05;105779;1253;60433;-77
2023/07/31 06:44:38;;;;;;;7.00;6.20;;;;;;;19.64;100.00;99107.35;105685;1253;60496;-77
2023/07/31 06:47:05;;;;;;;7.20;5.90;;;;;;;19.70;100.00;99113.48;105808;1256;75782;-79
2023/07/31 06:49:34;;;;;;;6.90;6.30;;;;;;;19.77;100.00;99114.06;105974;1253;70905;-78
2023/07/31 06:52:01;;;;;;;9.90;7.00;;;;;;;19.82;100.00;99117.70;106020;1253;71078;-78
2023/07/31 06:54:28;;;;;;;8.20;6.50;;;;;;;19.83;100.00;99115.83;106073;1253;62103;-77
2023/07/31 06:56:55;;;;;;;7.40;6.30;;;;;;;19.84;100.00;99116.91;106050;1254;60583;-77
2023/07/31 06:59:21;;;;;;;6.90;6.20;;;;;;;19.87;100.00;99120.14;106070;1253;60448;-78
2023/07/31 07:01:48;;;;;;;7.30;6.50;;;;;;;19.93;100.00;99121.66;106121;1253;71103;-78
2023/07/31 07:04:15;;;;;;;11.80;6.70;;;;;;;20.00;100.00;99123.95;106045;1253;71283;-77
2023/07/31 07:06:42;;;;;;;8.10;7.30;;;;;;;20.07;100.00;99120.07;106123;1253;60561;-77
2023/07/31 07:09:09;;;;;;;10.40;7.90;;;;;;;20.12;100.00;99118.21;106075;1254;60896;-78
2023/07/31 07:11:37;;;;;;;14.00;7.80;;;;;;;20.17;100.00;99120.80;106141;1255;73674;-77
2023/07/31 07:14:04;;;;;;;8.40;6.80;;;;;;;20.23;100.00;99115.86;106139;1257;70892;-76
2023/07/31 07:16:31;;;;;;;13.70;8.50;;;;;;;20.30;100.00;99114.92;106193;1253;72757;-77
2023/07/31 07:18:57;;;;;;;9.30;8.30;;;;;;;20.37;100.00;99116.83;106037;1256;60466;-78
2023/07/31 07:21:31;;;;;;;9.70;8.20;;;;;;;20.45;100.00;99113.21;106048;1253;60451;-76
2023/07/31 07:23:58;;;;;;;11.90;8.00;;;;;;;20.52;100.00;99114.62;106165;1253;72380;-78
2023/07/31 07:26:25;;;;;;;9.40;8.10;;;;;;;20.57;100.00;99113.63;106106;1253;70973;-79
2023/07/31 07:28:52;;;;;;;13.90;7.80;;;;;;;20.59;100.00;99111.52;106011;1256;72808;-78
2023/07/31 07:31:19;;;;;;;11.10;9.40;;;;;;;20.63;100.00;99111.73;106243;1253;61698;-77
2023/07/31 07:33:45;;;;;;;10.40;8.70;;;;;;;20.66;100.00;99105.44;106215;1253;60461;-78
2023/07/31 07:36:13;;;;;;;9.50;8.50;;;;;;;20.67;100.00;99100.77;106193;1253;73907;-77
2023/07/31 07:38:40;;;;;;;8.70;7.90;;;;;;;20.66;100.00;99107.27;106245;1253;71221;-78
2023/07/31 07:41:07;;;;;;;11.10;9.10;;;;;;;20.66;100.00;99104.55;106075;1258;70311;-77
2023/07/31 07:43:34;;;;;;;11.80;10.60;;;;;;;20.68;100.00;99100.98;106075;1254;61206;-77
2023/07/31 07:46:00;;;;;;;11.70;9.80;;;;;;;20.71;100.00;99097.41;106099;1257;60435;-78
2023/07/31 07:48:27;;;;;;;12.90;8.90;;;;;;;20.70;100.00;99097.63;106122;1256;73841;-76
2023/07/31 07:50:54;;;;;;;12.80;9.30;;;;;;;20.70;100.00;99094.27;106157;1253;60451;-77
2023/07/31 07:53:21;;;;;;;10.70;8.30;;;;;;;20.69;100.00;99098.59;106059;1257;71205;-77
2023/07/31 07:55:47;;;;;;;9.70;8.60;;;;;;;20.70;100.00;99099.00;106125;1258;60451;-78
2023/07/31 07:58:14;;;;;;;9.20;8.40;;;;;;;20.75;100.00;99099.18;106190;1253;60460;-77
2023/07/31 08:00:41;;;;;;;9.20;8.20;;;;;;;20.76;100.00;99102.99;106096;1253;73932;-77
2023/07/31 08:03:08;;;;;;;14.10;8.70;;;;;;;20.78;100.00;99099.07;106109;1258;71504;-76
2023/07/31 08:05:34;;;;;;;10.60;8.50;;;;;;;20.82;100.00;99095.97;106288;1253;71628;-78
2023/07/31 08:08:02;;;;;;;10.50;8.50;;;;;;;20.86;100.00;99093.47;106192;1253;61760;-77
2023/07/31 08:10:29;;;;;;;10.60;8.50;;;;;;;20.92;100.00;99093.67;105960;1254;60372;-75
2023/07/31 08:12:56;;;;;;;12.30;8.50;;;;;;;20.98;100.00;99091.05;105835;1253;73680;-76
2023/07/31 08:15:23;;;;;;;10.90;9.10;;;;;;;21.03;100.00;99090.96;105861;1253;70953;-78
2023/07/31 08:17:50;;;;;;;9.80;8.30;;;;;;;21.08;100.00;99096.05;105770;1253;72388;-77
2023/07/31 08:20:16;;;;;;;11.40;9.20;;;;;;;21.12;100.00;99103.19;105705;1253;60489;-77
2023/07/31 08:22:43;;;;;;;10.60;9.10;;;;;;;21.15;100.00;99100.08;105719;1254;60540;-76
2023/07/31 08:25:11;;;;;;;10.40;9.30;;;;;;;21.17;100.00;99099.27;105691;1258;73685;-79
2023/07/31 08:27:38;;;;;;;10.10;8.80;;;;;;;21.17;100.00;99100.83;105709;1253;71208;-77
2023/07/31 08:30:05;;;;;;;23.90;9.90;;;;;;;21.20;100.00;99101.63;105679;1257;60444;-78
2023/07/31 08:32:32;;;;;;;10.20;9.00;;;;;;;21.24;100.00;99100.61;105802;1253;60902;-77
2023/07/31 08:34:59;;;;;;;10.50;9.20;;;;;;;21.28;100.00;99100.63;105717;1257;60908;-78
2023/07/31 08:37:26;;;;;;;10.50;9.40;;;;;;;21.33;100.00;99101.20;105723;1258;73667;-78
2023/07/31 08:39:53;;;;;;;11.70;10.30;;;;;;;21.38;100.00;99095.45;105721;1253;71103;-77
2023/07/31 08:42:20;;;;;;;12.50;9.30;;;;;;;21.39;100.00;99089.14;105697;1253;72753;-78
2023/07/31 08:44:47;;;;;;;10.50;9.50;;;;;;;21.42;100.00;99089.61;105961;1258;60452;-78
2023/07/31 08:47:14;;;;;;;11.50;10.40;;;;;;;21.46;100.00;99083.34;106095;1253;60460;-77
2023/07/31 08:49:40;;;;;;;10.80;9.80;;;;;;;21.52;100.00;99084.98;106085;1258;72853;-78
2023/07/31 08:52:07;;;;;;;14.60;9.00;;;;;;;21.54;100.00;99086.06;106281;1255;71018;-78
2023/07/31 08:54:34;;;;;;;9.70;8.80;;;;;;;21.56;100.00;99090.75;106139;1257;72514;-76
2023/07/31 08:57:00;;;;;;;10.80;8.80;;;;;;;21.58;100.00;99094.69;106202;1254;60538;-76
2023/07/31 08:59:31;;;;;;;9.10;8.20;;;;;;;21.60;100.00;99093.05;105957;1253;60360;-77
2023/07/31 09:01:59;;;;;;;9.50;8.60;;;;;;;21.64;100.00;99099.32;106130;1254;72777;-77
2023/07/31 09:04:25;;;;;;;8.70;7.80;;;;;;;21.69;100.00;99100.34;106359;1253;71227;-77
2023/07/31 09:06:56;;;;;;;12.00;9.80;;;;;;;21.73;100.00;99102.79;106279;1257;72520;-77
2023/07/31 09:09:23;;;;;;;17.80;11.20;;;;;;;21.80;100.00;99108.11;106369;1253;60994;-77
2023/07/31 09:11:49;;;;;;;16.50;10.70;;;;;;;21.84;100.00;99108.23;106396;1257;60579;-77
2023/07/31 09:14:16;;;;;;;13.50;9.60;;;;;;;21.86;100.00;99107.54;106546;1253;74406;-77
2023/07/31 09:16:55;;;;;;;13.20;10.30;;;;;;;21.90;100.00;99101.17;106740;1253;60501;-78
2023/07/31 09:19:38;;;;;;;14.30;9.40;;;;;;;21.98;100.00;99102.42;106386;1257;70249;-78
2023/07/31 09:22:06;;;;;;;18.40;10.90;;;;;;;22.05;100.00;99101.59;106383;1255;60572;-78
2023/07/31 09:24:34;;;;;;;18.60;10.60;;;;;;;22.05;100.00;99094.85;106338;1256;60544;-76
2023/07/31 09:27:01;;;;;;;12.90;10.60;;;;;;;22.00;100.00;99098.33;105766;1253;73694;-78
2023/07/31 09:29:29;;;;;;;12.90;10.50;;;;;;;21.97;100.00;99103.03;106128;1253;71149;-77
2023/07/31 09:31:56;;;;;;;12.20;9.40;;;;;;;21.88;100.00;99103.22;105876;1266;72690;-77
2023/07/31 09:34:31;;;;;;;11.90;9.90;;;;;;;21.80;100.00;99103.42;106022;1253;60451;-78
2023/07/31 09:37:01;;;;;;;11.70;9.90;;;;;;;21.77;100.00;99101.61;106245;1253;60506;-77
2023/07/31 09:39:27;;;;;;;16.00;10.10;;;;;;;21.78;100.00;99106.67;106342;1253;72786;-78
2023/07/31 09:41:54;;;;;;;14.00;10.30;;;;;;;21.80;100.00;99109.36;106230;1257;69624;-77
2023/07/31 09:44:22;;;;;;;17.20;10.30;;;;;;;21.82;100.00;99105.95;106402;1255;72487;-77
2023/07/31 09:46:49;;;;;;;12.50;9.60;;;;;;;21.82;100.00;99098.81;106362;1253;61985;-77
2023/07/31 09:49:16;;;;;;;11.00;8.70;;;;;;;21.83;100.00;99093.34;106403;1256;60486;-77
2023/07/31 09:51:42;;;;;;;10.90;8.40;;;;;;;21.88;100.00;99093.11;106572;1257;73864;-77
2023/07/31 09:54:13;;;;;;;18.20;9.60;;;;;;;21.95;100.00;99092.15;106713;1256;69879;-78
2023/07/31 09:56:45;;;;;;;12.20;9.40;;;;;;;22.03;100.00;99085.48;106458;1254;72456;-78
2023/07/31 09:59:14;;;;;;;9.30;8.40;;;;;;;22.14;100.00;99081.71;106523;1254;60746;-77
2023/07/31 10:01:41;;;;;;;9.00;7.50;;;;;;;22.23;100.00;99077.27;106828;1252;60342;-77
2023/07/31 10:04:09;;;;;;;8.70;7.40;;;;;;;22.34;100.00;99071.21;106613;1257;73820;-77
2023/07/31 10:06:37;;;;;;;10.00;8.20;;;;;;;22.46;100.00;99074.59;106474;1259;69753;-79
2023/07/31 10:09:08;;;;;;;8.60;7.70;;;;;;;22.55;100.00;99074.59;106672;1257;71469;-78
2023/07/31 10:11:38;;;;;;;9.20;7.80;;;;;;;22.64;100.00;99072.02;106091;1257;1004909;-76
2023/07/31 10:14:05;;;;;;;9.90;7.70;;;;;;;22.72;100.00;99070.05;106834;1253;60464;-77
2023/07/31 10:16:32;;;;;;;9.20;7.60;;;;;;;22.77;100.00;99071.61;106504;1258;73899;-77
2023/07/31 10:18:59;;;;;;;12.00;8.40;;;;;;;22.77;100.00;99062.23;106831;1266;71136;-77
2023/07/31 10:21:26;;;;;;;10.30;8.30;;;;;;;22.73;100.00;99064.80;106729;1256;73633;-77
2023/07/31 10:23:52;;;;;;;10.10;7.60;;;;;;;22.71;100.00;99057.13;106558;1257;60804;-77
2023/07/31 10:26:20;;;;;;;12.80;8.30;;;;;;;22.74;100.00;99057.04;106480;1257;60457;-78
2023/07/31 10:28:46;;;;;;;10.00;8.50;;;;;;;22.83;100.00;99061.13;106764;1253;73684;-78
2023/07/31 10:31:13;;;;;;;9.80;8.00;;;;;;;22.94;100.00;99052.64;106501;1253;71164;-77
2023/07/31 10:33:40;;;;;;;9.40;7.60;;;;;;;23.01;100.00;99052.88;106190;1259;378791;-78
2023/07/31 10:36:33;;;;;;;8.30;7.40;;;;;;;23.08;100.00;99047.75;104853;1255;1002982;-77
2023/07/31 10:39:00;;;;;;;8.20;7.20;;;;;;;23.19;100.00;99048.05;106612;1256;60599;-78
2023/07/31 10:41:30;;;;;;;10.30;6.90;;;;;;;23.30;100.00;99043.77;106395;1257;72427;-78
2023/07/31 10:43:59;;;;;;;8.40;7.70;;;;;;;23.39;100.00;99036.65;106716;1254;70986;-77
2023/07/31 10:46:27;;;;;;;7.90;7.20;;;;;;;23.44;100.00;99040.25;106815;1255;71571;-77
2023/07/31 10:49:01;;;;;;;8.30;6.80;;;;;;;23.52;100.00;99036.85;106616;1255;61986;-77
2023/07/31 10:51:35;;;;;;;8.90;7.30;;;;;;;23.60;100.00;99038.73;106636;1257;60359;-78
2023/07/31 10:54:12;;;;;;;8.50;6.50;;;;;;;23.71;100.00;99040.92;106742;1260;73669;-77
2023/07/31 10:56:39;;;;;;;7.10;6.40;;;;;;;23.84;100.00;99038.23;106032;1254;71075;-75
2023/07/31 10:59:07;;;;;;;7.20;6.50;;;;;;;23.97;100.00;99037.48;105724;1262;72547;-76
2023/07/31 11:01:57;;;;;;;9.30;6.50;;;;;;;24.09;100.00;99036.83;105734;1266;60454;-75
2023/07/31 11:04:24;;;;;;;8.40;6.70;;;;;;;24.17;100.00;99029.59;105730;1263;60492;-76
2023/07/31 11:07:02;;;;;;;7.00;6.10;;;;;;;24.23;100.00;99024.40;105771;1257;73899;-76
2023/07/31 11:09:32;;;;;;;6.90;6.20;;;;;;;24.31;100.00;99023.16;105872;1254;69780;-76
2023/07/31 11:11:59;;;;;;;7.40;6.60;;;;;;;24.40;100.00;99033.59;105854;1260;74553;-76
2023/07/31 11:14:26;;;;;;;8.80;7.20;;;;;;;24.48;100.00;99034.73;105996;1266;60434;-76
2023/07/31 11:16:53;;;;;;;9.00;6.90;;;;;;;24.45;100.00;99024.64;105886;1253;60571;-76